MUCM/CMW METAR and TAF weather

Enter ICAO airport designator
Station Type Date Time Source
MUCM METAR 2021/04/18 02:50 UTC NOAA

MUCM 180250Z 06004KT 9000 SKC 24/19 Q1015


Station Type Date Time Source
MUCM Decoded METAR 2021/04/18 02:50 UTC NOAA

Camaguey Aeropuerto, Cuba (MUCM) 21-25N 077-51W 118M
Apr 17, 2021 - 10:50 PM EDT / 2021.04.18 0250 UTC
Wind: from the ENE (060 degrees) at 5 MPH (4 KT):0
Visibility: 5 mile(s):0
Sky conditions: clear
Temperature: 75 F (24 C)
Dew Point: 66 F (19 C)
Relative Humidity: 73%
Pressure (altimeter): 29.97 in. Hg (1015 hPa)
ob: MUCM 180250Z 06004KT 9000 SKC 24/19 Q1015
cycle: 3

Station Type Date Time Source
MUCM TAF 2021/04/17 18:03 UTC NOAA

TAF MUCM 171700Z 1718/1818 20008KT 9000 SCT020
BECMG 1800/1802 VRB03KT
BECMG 1815/1817 18010KT

Example: see airport list